CheckWX is a tool to help pilots better visualize weather data.  It is not intended as a substitute for an official pre-flight weather briefing.

21:37:41 UTC

KTIK TAF
Tinker AFB Airport
Oklahoma City, Oklahoma, USA
TAF KTIK 201700Z 2017/2123 34012G18KT 9999 SCT050 BKN110 QNH3018INS BECMG 2018/2019 33009KT 9999 SKC QNH3015INS BECMG 2102/2103 23006KT 9999 SKC QNH3016INS BECMG 2114/2115 02012KT 9999 SKC QNH3017INS TX16/2021Z TN02/2112Z

Mar-20@
17:00 UTC

Mar-20 @ 17:00 UTC

Mar-20@
18:00 UTC

Mar-20 @ 18:00 UTC

TAF KTIK 201700Z 2017/2123 34012G18KT 9999 SCT050 BKN110 QNH3018INS

Expired

Wind
  • 340° at 12 KTS
  • {Gusting to 18 KTS
Cloud Levels
  • Scattered at 5,000' AGL
  • Broken at 11,000' AGL

Mar-20@
18:00 UTC

Mar-20 @ 18:00 UTC

Mar-21@
02:00 UTC

Mar-21 @ 02:00 UTC

BECMG 2018/2019 33009KT 9999 SKC QNH3015INS

Becoming

Becoming Conditions expected by Wed, Mar 20, 2019 @ 19:00 UTC

Wind
  • 330° at 9 KTS
Cloud Levels
  • Clear skies

Mar-21@
02:00 UTC

Mar-21 @ 02:00 UTC

Mar-21@
14:00 UTC

Mar-21 @ 14:00 UTC

BECMG 2102/2103 23006KT 9999 SKC QNH3016INS

Becoming

Becoming Conditions expected by Thu, Mar 21, 2019 @ 03:00 UTC

Wind
  • 230° at 6 KTS
Cloud Levels
  • Clear skies

Mar-21@
14:00 UTC

Mar-21 @ 14:00 UTC

Mar-21@
23:00 UTC

Mar-21 @ 23:00 UTC

BECMG 2114/2115 02012KT 9999 SKC QNH3017INS TX16/2021Z TN02/2112Z

Becoming

Becoming Conditions expected by Thu, Mar 21, 2019 @ 15:00 UTC

Wind
  • 020° at 12 KTS
Cloud Levels
  • Clear skies